createdAt,value
2023-11-24T00:01:31.013Z,4.12
2023-11-24T00:09:57.136Z,4.11
2023-11-24T00:18:22.734Z,4.10
2023-11-24T00:26:47.133Z,4.11
2023-11-24T00:35:12.928Z,4.10
2023-11-24T00:43:38.441Z,4.06
2023-11-24T00:52:04.338Z,4.01
2023-11-24T01:00:27.884Z,3.94
2023-11-24T01:08:51.653Z,3.83
2023-11-24T01:17:18.447Z,3.73
2023-11-24T01:25:42.800Z,3.72
2023-11-24T01:34:10.985Z,3.75
2023-11-24T01:42:39.733Z,3.77
2023-11-24T01:51:03.488Z,3.80
2023-11-24T01:59:27.036Z,3.82
2023-11-24T02:07:52.955Z,3.85
2023-11-24T02:16:17.004Z,3.88
2023-11-24T02:24:41.035Z,3.93
2023-11-24T02:33:12.052Z,3.96
2023-11-24T02:41:36.218Z,4.01
2023-11-24T02:49:59.437Z,4.02
2023-11-24T02:58:26.541Z,4.04
2023-11-24T03:06:50.445Z,4.07
2023-11-24T03:15:18.680Z,4.12
2023-11-24T03:23:43.194Z,4.18
2023-11-24T03:32:08.275Z,4.18
2023-11-24T03:40:32.871Z,4.17
2023-11-24T03:49:01.233Z,4.07
2023-11-24T03:57:29.783Z,3.97
2023-11-24T04:05:55.025Z,3.88
2023-11-24T04:14:18.655Z,3.87
2023-11-24T04:22:43.106Z,3.83
2023-11-24T04:31:10.194Z,3.77
2023-11-24T04:39:35.570Z,3.71
2023-11-24T04:48:08.909Z,3.62
2023-11-24T04:56:34.714Z,3.56
2023-11-24T05:04:58.508Z,3.49
2023-11-24T05:13:23.601Z,3.33
2023-11-24T05:21:51.014Z,3.09
2023-11-24T05:30:14.976Z,2.97
2023-11-24T05:38:41.032Z,2.85
2023-11-24T05:47:06.777Z,2.67
2023-11-24T05:55:32.140Z,2.44
2023-11-24T06:03:56.759Z,2.24
2023-11-24T06:12:23.326Z,2.16
2023-11-24T06:20:48.979Z,2.14
2023-11-24T06:29:13.702Z,2.21
2023-11-24T06:37:39.627Z,2.33
2023-11-24T06:46:04.522Z,2.40
2023-11-24T06:54:31.126Z,2.44
2023-11-24T07:02:55.768Z,2.53
2023-11-24T07:11:22.188Z,2.59
2023-11-24T07:19:46.204Z,2.68
2023-11-24T07:28:12.867Z,2.71
2023-11-24T07:36:36.781Z,2.77
2023-11-24T07:45:26.833Z,2.80
2023-11-24T07:53:50.508Z,2.90
2023-11-24T08:02:17.007Z,3.05
2023-11-24T08:10:43.311Z,3.01
2023-11-24T08:19:09.511Z,2.99
2023-11-24T08:27:34.530Z,2.97
2023-11-24T08:35:58.580Z,3.01
2023-11-24T08:44:25.994Z,3.09
2023-11-24T08:52:50.944Z,3.13
2023-11-24T09:01:19.816Z,3.12
2023-11-24T09:09:44.190Z,3.16
2023-11-24T09:18:10.721Z,3.21
2023-11-24T09:26:38.057Z,3.23
2023-11-24T09:35:07.226Z,3.28
2023-11-24T09:43:38.688Z,3.35
2023-11-24T09:52:05.332Z,3.44
2023-11-24T10:00:35.029Z,3.58
2023-11-24T10:09:00.176Z,3.76
2023-11-24T10:17:27.311Z,3.75
2023-11-24T10:25:52.744Z,3.61
2023-11-24T10:34:17.490Z,3.47
2023-11-24T10:42:50.716Z,3.36
2023-11-24T10:51:24.685Z,3.29
2023-11-24T10:59:52.470Z,3.19
2023-11-24T11:09:17.909Z,3.17
2023-11-24T11:17:43.040Z,3.23
2023-11-24T11:26:45.314Z,3.34
2023-11-24T11:35:12.101Z,3.31
2023-11-24T11:43:53.327Z,3.24
2023-11-24T11:52:17.848Z,3.04
2023-11-24T12:00:41.865Z,2.93
2023-11-24T12:09:07.029Z,2.90
2023-11-24T12:17:32.340Z,2.84
2023-11-24T12:25:57.847Z,2.84
2023-11-24T12:34:45.167Z,3.01
2023-11-24T12:43:20.241Z,3.32
2023-11-24T12:51:49.355Z,3.39
2023-11-24T13:00:18.780Z,3.18
2023-11-24T13:08:45.248Z,2.95
2023-11-24T13:17:09.133Z,2.79
2023-11-24T13:25:39.994Z,2.78
2023-11-24T13:34:05.998Z,2.60
2023-11-24T13:42:31.704Z,1.88
2023-11-24T13:50:59.462Z,1.22
2023-11-24T13:59:26.986Z,0.82
2023-11-24T14:07:52.577Z,0.57
2023-11-24T14:16:17.717Z,0.49
2023-11-24T14:24:45.448Z,0.46
2023-11-24T14:33:13.694Z,0.36
2023-11-24T14:41:37.722Z,0.31
2023-11-24T14:50:06.038Z,0.27
2023-11-24T14:58:30.609Z,0.16
2023-11-24T15:06:59.227Z,0.14
2023-11-24T15:15:26.259Z,0.13
2023-11-24T15:23:58.944Z,0.07
2023-11-24T15:32:22.578Z,-0.05
2023-11-24T15:40:52.492Z,-0.13
2023-11-24T15:49:17.898Z,-0.17
2023-11-24T15:57:42.183Z,-0.23
2023-11-24T16:06:09.300Z,-0.35
2023-11-24T16:14:34.947Z,-0.40
2023-11-24T16:22:59.757Z,-0.32
2023-11-24T16:31:24.261Z,-0.23
2023-11-24T16:39:47.703Z,-0.25
2023-11-24T16:48:11.796Z,-0.25
2023-11-24T16:56:34.915Z,-0.17
2023-11-24T17:05:01.069Z,-0.11
2023-11-24T17:13:25.321Z,-0.13
2023-11-24T17:21:49.422Z,-0.14
2023-11-24T17:30:16.972Z,-0.11
2023-11-24T17:38:44.306Z,-0.08
2023-11-24T17:47:08.956Z,-0.16
2023-11-24T17:55:35.474Z,-0.39
2023-11-24T18:04:02.796Z,-0.75
2023-11-24T18:12:27.803Z,-1.01
2023-11-24T18:20:51.022Z,-1.21
2023-11-24T18:29:27.564Z,-1.30
2023-11-24T18:38:10.507Z,-1.45
2023-11-24T18:46:33.983Z,-1.74
2023-11-24T18:54:57.709Z,-1.94
2023-11-24T19:03:21.424Z,-1.96
2023-11-24T19:11:50.008Z,-1.94
2023-11-24T19:20:13.832Z,-1.98
2023-11-24T19:28:40.756Z,-1.96
2023-11-24T19:37:06.430Z,-1.85
2023-11-24T19:45:30.163Z,-1.70
2023-11-24T19:53:54.452Z,-1.56
2023-11-24T20:02:19.654Z,-1.47
2023-11-24T20:10:44.454Z,-1.42
2023-11-24T20:19:10.317Z,-1.43
2023-11-24T20:27:34.513Z,-1.44
2023-11-24T20:35:58.623Z,-1.38
2023-11-24T20:44:23.077Z,-1.30
2023-11-24T20:52:49.099Z,-1.23
2023-11-24T21:01:15.795Z,-1.27
2023-11-24T21:09:42.761Z,-1.42
2023-11-24T21:18:09.482Z,-1.56
2023-11-24T21:26:37.086Z,-1.63
2023-11-24T21:35:00.652Z,-1.61
2023-11-24T21:43:23.868Z,-1.56
2023-11-24T21:51:47.505Z,-1.51
2023-11-24T22:00:18.704Z,-1.47
2023-11-24T22:08:42.733Z,-1.48
2023-11-24T22:17:08.945Z,-1.45
2023-11-24T22:25:35.869Z,-1.33
2023-11-24T22:33:59.947Z,-1.18
2023-11-24T22:42:23.494Z,-1.02
2023-11-24T22:50:52.727Z,-0.87
2023-11-24T22:59:16.339Z,-0.71
2023-11-24T23:07:43.095Z,-0.61
2023-11-24T23:16:08.653Z,-0.58
2023-11-24T23:24:35.216Z,-0.55
2023-11-24T23:33:10.395Z,-0.45
2023-11-24T23:41:42.683Z,-0.34
2023-11-24T23:50:10.886Z,-0.22
2023-11-24T23:58:37.923Z,-0.17
